sensor_id;sensor_type;location;lat;lon;timestamp;P1;durP1;ratioP1;P2;durP2;ratioP2
18875;SDS011;9570;50.854;13.778;2023-07-02T00:02:22;1.50;;;1.40;;
18875;SDS011;9570;50.854;13.778;2023-07-02T00:04:48;3.03;;;1.40;;
18875;SDS011;9570;50.854;13.778;2023-07-02T00:07:13;1.70;;;1.30;;
18875;SDS011;9570;50.854;13.778;2023-07-02T00:09:41;1.30;;;1.20;;
18875;SDS011;9570;50.854;13.778;2023-07-02T00:12:07;1.47;;;1.20;;
18875;SDS011;9570;50.854;13.778;2023-07-02T00:14:33;2.40;;;1.40;;
18875;SDS011;9570;50.854;13.778;2023-07-02T00:16:58;1.50;;;1.40;;
18875;SDS011;9570;50.854;13.778;2023-07-02T00:19:24;1.53;;;1.40;;
18875;SDS011;9570;50.854;13.778;2023-07-02T00:21:50;2.43;;;1.40;;
18875;SDS011;9570;50.854;13.778;2023-07-02T00:24:18;2.93;;;1.10;;
18875;SDS011;9570;50.854;13.778;2023-07-02T00:26:43;1.77;;;1.27;;
18875;SDS011;9570;50.854;13.778;2023-07-02T00:29:09;1.10;;;1.00;;
18875;SDS011;9570;50.854;13.778;2023-07-02T00:31:35;2.50;;;1.10;;
18875;SDS011;9570;50.854;13.778;2023-07-02T00:34:01;2.30;;;1.17;;
18875;SDS011;9570;50.854;13.778;2023-07-02T00:36:27;1.07;;;0.97;;
18875;SDS011;9570;50.854;13.778;2023-07-02T00:38:53;1.87;;;1.10;;
18875;SDS011;9570;50.854;13.778;2023-07-02T00:41:20;1.53;;;1.17;;
18875;SDS011;9570;50.854;13.778;2023-07-02T00:43:45;1.20;;;1.07;;
18875;SDS011;9570;50.854;13.778;2023-07-02T00:46:11;2.80;;;1.20;;
18875;SDS011;9570;50.854;13.778;2023-07-02T00:48:42;2.00;;;1.00;;
18875;SDS011;9570;50.854;13.778;2023-07-02T00:51:09;1.20;;;1.10;;
18875;SDS011;9570;50.854;13.778;2023-07-02T00:53:38;1.20;;;1.10;;
18875;SDS011;9570;50.854;13.778;2023-07-02T00:56:03;1.70;;;1.13;;
18875;SDS011;9570;50.854;13.778;2023-07-02T00:58:29;1.97;;;1.03;;
18875;SDS011;9570;50.854;13.778;2023-07-02T01:00:55;1.20;;;0.90;;
18875;SDS011;9570;50.854;13.778;2023-07-02T01:03:21;2.20;;;1.30;;
18875;SDS011;9570;50.854;13.778;2023-07-02T01:05:47;1.10;;;1.00;;
18875;SDS011;9570;50.854;13.778;2023-07-02T01:08:12;1.80;;;1.10;;
18875;SDS011;9570;50.854;13.778;2023-07-02T01:10:39;0.83;;;0.83;;
18875;SDS011;9570;50.854;13.778;2023-07-02T01:13:06;1.27;;;1.10;;
18875;SDS011;9570;50.854;13.778;2023-07-02T01:15:37;1.20;;;1.10;;
18875;SDS011;9570;50.854;13.778;2023-07-02T01:18:03;0.90;;;0.90;;
18875;SDS011;9570;50.854;13.778;2023-07-02T01:20:30;1.33;;;1.00;;
18875;SDS011;9570;50.854;13.778;2023-07-02T01:22:57;2.03;;;1.00;;
18875;SDS011;9570;50.854;13.778;2023-07-02T01:25:27;1.10;;;1.00;;
18875;SDS011;9570;50.854;13.778;2023-07-02T01:27:53;1.63;;;0.97;;
18875;SDS011;9570;50.854;13.778;2023-07-02T01:30:20;1.30;;;1.00;;
18875;SDS011;9570;50.854;13.778;2023-07-02T01:32:46;2.50;;;1.10;;
18875;SDS011;9570;50.854;13.778;2023-07-02T01:35:11;1.40;;;1.13;;
18875;SDS011;9570;50.854;13.778;2023-07-02T01:37:37;1.57;;;1.13;;
18875;SDS011;9570;50.854;13.778;2023-07-02T01:40:03;1.40;;;1.00;;
18875;SDS011;9570;50.854;13.778;2023-07-02T01:42:32;1.53;;;1.10;;
18875;SDS011;9570;50.854;13.778;2023-07-02T01:44:58;1.20;;;1.00;;
18875;SDS011;9570;50.854;13.778;2023-07-02T01:47:23;1.37;;;1.27;;
18875;SDS011;9570;50.854;13.778;2023-07-02T01:49:49;2.37;;;1.30;;
18875;SDS011;9570;50.854;13.778;2023-07-02T01:52:15;1.47;;;1.30;;
18875;SDS011;9570;50.854;13.778;2023-07-02T01:54:41;1.30;;;1.20;;
18875;SDS011;9570;50.854;13.778;2023-07-02T01:57:06;1.30;;;1.20;;
18875;SDS011;9570;50.854;13.778;2023-07-02T01:59:32;1.73;;;1.00;;
18875;SDS011;9570;50.854;13.778;2023-07-02T02:01:57;1.20;;;1.10;;
18875;SDS011;9570;50.854;13.778;2023-07-02T02:04:23;1.20;;;1.10;;
18875;SDS011;9570;50.854;13.778;2023-07-02T02:06:48;0.90;;;0.90;;
18875;SDS011;9570;50.854;13.778;2023-07-02T02:09:14;1.40;;;1.30;;
18875;SDS011;9570;50.854;13.778;2023-07-02T02:11:41;1.53;;;1.00;;
18875;SDS011;9570;50.854;13.778;2023-07-02T02:14:08;1.30;;;1.20;;
18875;SDS011;9570;50.854;13.778;2023-07-02T02:16:33;1.30;;;1.10;;
18875;SDS011;9570;50.854;13.778;2023-07-02T02:18:59;1.20;;;1.10;;
18875;SDS011;9570;50.854;13.778;2023-07-02T02:21:25;1.60;;;1.20;;
18875;SDS011;9570;50.854;13.778;2023-07-02T02:23:51;1.33;;;1.23;;
18875;SDS011;9570;50.854;13.778;2023-07-02T02:26:17;1.80;;;1.17;;
18875;SDS011;9570;50.854;13.778;2023-07-02T02:28:42;1.40;;;1.30;;
18875;SDS011;9570;50.854;13.778;2023-07-02T02:31:08;1.20;;;1.10;;
18875;SDS011;9570;50.854;13.778;2023-07-02T02:33:34;2.03;;;1.33;;
18875;SDS011;9570;50.854;13.778;2023-07-02T02:36:00;1.40;;;1.30;;
18875;SDS011;9570;50.854;13.778;2023-07-02T02:38:26;1.43;;;1.30;;
18875;SDS011;9570;50.854;13.778;2023-07-02T02:40:52;1.40;;;1.30;;
18875;SDS011;9570;50.854;13.778;2023-07-02T02:43:17;2.00;;;1.33;;
18875;SDS011;9570;50.854;13.778;2023-07-02T02:45:43;1.50;;;1.40;;
18875;SDS011;9570;50.854;13.778;2023-07-02T02:48:08;2.57;;;1.30;;
18875;SDS011;9570;50.854;13.778;2023-07-02T02:50:34;1.70;;;1.30;;
18875;SDS011;9570;50.854;13.778;2023-07-02T02:52:59;1.37;;;1.27;;
18875;SDS011;9570;50.854;13.778;2023-07-02T02:55:25;2.13;;;1.20;;
18875;SDS011;9570;50.854;13.778;2023-07-02T02:57:51;1.90;;;1.30;;
18875;SDS011;9570;50.854;13.778;2023-07-02T03:00:16;1.50;;;1.40;;
18875;SDS011;9570;50.854;13.778;2023-07-02T03:02:42;1.33;;;1.23;;
18875;SDS011;9570;50.854;13.778;2023-07-02T03:05:08;1.50;;;1.40;;
18875;SDS011;9570;50.854;13.778;2023-07-02T03:07:33;1.40;;;1.30;;
18875;SDS011;9570;50.854;13.778;2023-07-02T03:10:00;1.93;;;1.60;;
18875;SDS011;9570;50.854;13.778;2023-07-02T03:12:26;1.33;;;1.23;;
18875;SDS011;9570;50.854;13.778;2023-07-02T03:14:51;2.03;;;1.40;;
18875;SDS011;9570;50.854;13.778;2023-07-02T03:17:19;1.40;;;1.30;;
18875;SDS011;9570;50.854;13.778;2023-07-02T03:19:45;1.50;;;1.40;;
18875;SDS011;9570;50.854;13.778;2023-07-02T03:22:11;1.60;;;1.50;;
18875;SDS011;9570;50.854;13.778;2023-07-02T03:24:37;1.50;;;1.40;;
18875;SDS011;9570;50.854;13.778;2023-07-02T03:27:02;1.43;;;1.33;;
18875;SDS011;9570;50.854;13.778;2023-07-02T03:29:28;3.00;;;1.60;;
18875;SDS011;9570;50.854;13.778;2023-07-02T03:31:54;2.60;;;1.60;;
18875;SDS011;9570;50.854;13.778;2023-07-02T03:34:19;1.53;;;1.43;;
18875;SDS011;9570;50.854;13.778;2023-07-02T03:36:47;1.43;;;1.33;;
18875;SDS011;9570;50.854;13.778;2023-07-02T03:39:12;1.90;;;1.70;;
18875;SDS011;9570;50.854;13.778;2023-07-02T03:41:38;1.60;;;1.50;;
18875;SDS011;9570;50.854;13.778;2023-07-02T03:44:03;2.70;;;1.60;;
18875;SDS011;9570;50.854;13.778;2023-07-02T03:46:29;1.43;;;1.33;;
18875;SDS011;9570;50.854;13.778;2023-07-02T03:48:56;1.63;;;1.53;;
18875;SDS011;9570;50.854;13.778;2023-07-02T03:51:21;1.60;;;1.50;;
18875;SDS011;9570;50.854;13.778;2023-07-02T03:53:47;1.60;;;1.50;;
18875;SDS011;9570;50.854;13.778;2023-07-02T03:56:12;2.63;;;1.57;;
18875;SDS011;9570;50.854;13.778;2023-07-02T03:58:39;2.33;;;1.40;;
18875;SDS011;9570;50.854;13.778;2023-07-02T04:01:05;1.77;;;1.40;;
18875;SDS011;9570;50.854;13.778;2023-07-02T04:03:30;2.27;;;1.40;;
18875;SDS011;9570;50.854;13.778;2023-07-02T04:05:56;1.63;;;1.50;;
18875;SDS011;9570;50.854;13.778;2023-07-02T04:08:21;2.00;;;1.37;;
18875;SDS011;9570;50.854;13.778;2023-07-02T04:10:47;2.27;;;1.83;;
18875;SDS011;9570;50.854;13.778;2023-07-02T04:13:12;1.60;;;1.50;;
18875;SDS011;9570;50.854;13.778;2023-07-02T04:15:38;3.60;;;1.40;;
18875;SDS011;9570;50.854;13.778;2023-07-02T04:18:03;1.63;;;1.50;;
18875;SDS011;9570;50.854;13.778;2023-07-02T04:20:29;2.20;;;1.70;;
18875;SDS011;9570;50.854;13.778;2023-07-02T04:22:54;2.00;;;1.90;;
18875;SDS011;9570;50.854;13.778;2023-07-02T04:25:20;2.13;;;1.80;;
18875;SDS011;9570;50.854;13.778;2023-07-02T04:27:46;1.70;;;1.50;;
18875;SDS011;9570;50.854;13.778;2023-07-02T04:30:11;1.83;;;1.73;;
18875;SDS011;9570;50.854;13.778;2023-07-02T04:32:37;3.80;;;1.87;;
18875;SDS011;9570;50.854;13.778;2023-07-02T04:35:09;2.03;;;1.93;;
18875;SDS011;9570;50.854;13.778;2023-07-02T04:37:36;2.30;;;2.10;;
18875;SDS011;9570;50.854;13.778;2023-07-02T04:40:01;2.03;;;1.90;;
18875;SDS011;9570;50.854;13.778;2023-07-02T04:42:36;4.07;;;2.33;;
18875;SDS011;9570;50.854;13.778;2023-07-02T04:45:02;2.73;;;2.10;;
18875;SDS011;9570;50.854;13.778;2023-07-02T04:47:33;5.30;;;2.80;;
18875;SDS011;9570;50.854;13.778;2023-07-02T04:49:59;2.43;;;2.20;;
18875;SDS011;9570;50.854;13.778;2023-07-02T04:52:25;3.80;;;2.33;;
18875;SDS011;9570;50.854;13.778;2023-07-02T04:54:50;3.07;;;2.27;;
18875;SDS011;9570;50.854;13.778;2023-07-02T04:57:16;3.33;;;2.13;;
18875;SDS011;9570;50.854;13.778;2023-07-02T04:59:42;2.50;;;1.83;;
18875;SDS011;9570;50.854;13.778;2023-07-02T05:02:08;2.20;;;2.00;;
18875;SDS011;9570;50.854;13.778;2023-07-02T05:04:33;3.20;;;2.10;;
18875;SDS011;9570;50.854;13.778;2023-07-02T05:07:00;4.03;;;2.10;;
18875;SDS011;9570;50.854;13.778;2023-07-02T05:09:25;2.20;;;2.00;;
18875;SDS011;9570;50.854;13.778;2023-07-02T05:11:51;1.90;;;1.80;;
18875;SDS011;9570;50.854;13.778;2023-07-02T05:14:16;4.77;;;2.27;;
18875;SDS011;9570;50.854;13.778;2023-07-02T05:16:42;6.43;;;2.27;;
18875;SDS011;9570;50.854;13.778;2023-07-02T05:19:07;3.03;;;2.60;;
18875;SDS011;9570;50.854;13.778;2023-07-02T05:21:33;2.90;;;2.23;;
18875;SDS011;9570;50.854;13.778;2023-07-02T05:23:58;3.37;;;2.10;;
18875;SDS011;9570;50.854;13.778;2023-07-02T05:26:24;4.93;;;2.30;;
18875;SDS011;9570;50.854;13.778;2023-07-02T05:28:51;2.77;;;2.03;;
18875;SDS011;9570;50.854;13.778;2023-07-02T05:31:16;4.00;;;2.43;;
18875;SDS011;9570;50.854;13.778;2023-07-02T05:33:42;2.50;;;2.20;;
18875;SDS011;9570;50.854;13.778;2023-07-02T05:36:07;2.60;;;2.30;;
18875;SDS011;9570;50.854;13.778;2023-07-02T05:38:32;6.23;;;2.40;;
18875;SDS011;9570;50.854;13.778;2023-07-02T05:40:58;2.50;;;2.23;;
18875;SDS011;9570;50.854;13.778;2023-07-02T05:43:23;2.67;;;2.30;;
18875;SDS011;9570;50.854;13.778;2023-07-02T05:45:50;4.40;;;2.77;;
18875;SDS011;9570;50.854;13.778;2023-07-02T05:48:17;4.07;;;2.40;;
18875;SDS011;9570;50.854;13.778;2023-07-02T05:50:42;3.47;;;2.80;;
18875;SDS011;9570;50.854;13.778;2023-07-02T05:53:08;3.90;;;2.60;;
18875;SDS011;9570;50.854;13.778;2023-07-02T05:55:34;3.30;;;2.70;;
18875;SDS011;9570;50.854;13.778;2023-07-02T05:58:00;3.33;;;2.30;;
18875;SDS011;9570;50.854;13.778;2023-07-02T06:00:27;2.77;;;2.57;;
18875;SDS011;9570;50.854;13.778;2023-07-02T06:02:53;2.40;;;2.20;;
18875;SDS011;9570;50.854;13.778;2023-07-02T06:05:19;2.83;;;2.30;;
18875;SDS011;9570;50.854;13.778;2023-07-02T06:07:44;2.40;;;2.20;;
18875;SDS011;9570;50.854;13.778;2023-07-02T06:10:10;2.43;;;2.17;;
18875;SDS011;9570;50.854;13.778;2023-07-02T06:12:35;2.53;;;2.33;;
18875;SDS011;9570;50.854;13.778;2023-07-02T06:15:01;2.27;;;2.07;;
18875;SDS011;9570;50.854;13.778;2023-07-02T06:17:27;2.47;;;2.17;;
18875;SDS011;9570;50.854;13.778;2023-07-02T06:19:53;2.10;;;2.00;;
18875;SDS011;9570;50.854;13.778;2023-07-02T06:22:18;3.20;;;2.23;;
18875;SDS011;9570;50.854;13.778;2023-07-02T06:24:44;1.97;;;1.87;;
18875;SDS011;9570;50.854;13.778;2023-07-02T06:27:09;3.17;;;2.13;;
18875;SDS011;9570;50.854;13.778;2023-07-02T06:29:35;4.67;;;2.20;;
18875;SDS011;9570;50.854;13.778;2023-07-02T06:32:00;2.93;;;2.47;;
18875;SDS011;9570;50.854;13.778;2023-07-02T06:34:26;2.60;;;2.40;;
18875;SDS011;9570;50.854;13.778;2023-07-02T06:36:51;3.17;;;2.50;;
18875;SDS011;9570;50.854;13.778;2023-07-02T06:39:17;6.43;;;2.60;;
18875;SDS011;9570;50.854;13.778;2023-07-02T06:41:42;3.00;;;2.70;;
18875;SDS011;9570;50.854;13.778;2023-07-02T06:44:08;3.40;;;2.70;;
18875;SDS011;9570;50.854;13.778;2023-07-02T06:46:33;3.43;;;2.47;;
18875;SDS011;9570;50.854;13.778;2023-07-02T06:48:59;2.77;;;2.57;;
18875;SDS011;9570;50.854;13.778;2023-07-02T06:51:24;2.90;;;2.70;;
18875;SDS011;9570;50.854;13.778;2023-07-02T06:53:51;3.00;;;2.80;;
18875;SDS011;9570;50.854;13.778;2023-07-02T06:56:17;2.80;;;2.60;;
18875;SDS011;9570;50.854;13.778;2023-07-02T06:58:42;4.03;;;2.70;;
18875;SDS011;9570;50.854;13.778;2023-07-02T07:01:08;2.30;;;2.17;;
18875;SDS011;9570;50.854;13.778;2023-07-02T07:03:37;3.53;;;2.70;;
18875;SDS011;9570;50.854;13.778;2023-07-02T07:06:02;3.50;;;2.53;;
18875;SDS011;9570;50.854;13.778;2023-07-02T07:08:28;7.70;;;5.53;;
18875;SDS011;9570;50.854;13.778;2023-07-02T07:10:54;11.60;;;7.20;;
18875;SDS011;9570;50.854;13.778;2023-07-02T07:13:19;4.17;;;3.40;;
18875;SDS011;9570;50.854;13.778;2023-07-02T07:15:45;3.73;;;3.37;;
18875;SDS011;9570;50.854;13.778;2023-07-02T07:18:10;3.57;;;3.10;;
18875;SDS011;9570;50.854;13.778;2023-07-02T07:20:36;3.73;;;2.90;;
18875;SDS011;9570;50.854;13.778;2023-07-02T07:23:03;4.60;;;3.17;;
18875;SDS011;9570;50.854;13.778;2023-07-02T07:25:28;3.97;;;2.90;;
18875;SDS011;9570;50.854;13.778;2023-07-02T07:27:54;3.03;;;2.73;;
18875;SDS011;9570;50.854;13.778;2023-07-02T07:30:20;3.17;;;2.87;;
18875;SDS011;9570;50.854;13.778;2023-07-02T07:32:49;4.13;;;2.90;;
18875;SDS011;9570;50.854;13.778;2023-07-02T07:35:15;5.07;;;3.17;;
18875;SDS011;9570;50.854;13.778;2023-07-02T07:37:41;3.40;;;3.10;;
18875;SDS011;9570;50.854;13.778;2023-07-02T07:40:07;4.63;;;3.43;;
18875;SDS011;9570;50.854;13.778;2023-07-02T07:42:33;3.73;;;3.00;;
18875;SDS011;9570;50.854;13.778;2023-07-02T07:44:58;5.43;;;3.43;;
18875;SDS011;9570;50.854;13.778;2023-07-02T07:47:23;3.40;;;3.10;;
18875;SDS011;9570;50.854;13.778;2023-07-02T07:49:49;4.17;;;3.07;;
18875;SDS011;9570;50.854;13.778;2023-07-02T07:52:15;5.17;;;2.60;;
18875;SDS011;9570;50.854;13.778;2023-07-02T07:54:40;3.13;;;2.83;;
18875;SDS011;9570;50.854;13.778;2023-07-02T07:57:06;3.23;;;2.90;;
18875;SDS011;9570;50.854;13.778;2023-07-02T07:59:31;3.47;;;2.57;;
18875;SDS011;9570;50.854;13.778;2023-07-02T08:01:57;3.17;;;2.70;;
18875;SDS011;9570;50.854;13.778;2023-07-02T08:04:22;3.83;;;2.60;;
18875;SDS011;9570;50.854;13.778;2023-07-02T08:06:48;4.60;;;2.70;;
18875;SDS011;9570;50.854;13.778;2023-07-02T08:09:13;3.03;;;2.60;;
18875;SDS011;9570;50.854;13.778;2023-07-02T08:11:39;3.03;;;2.43;;
18875;SDS011;9570;50.854;13.778;2023-07-02T08:14:04;3.43;;;2.70;;
18875;SDS011;9570;50.854;13.778;2023-07-02T08:16:30;3.53;;;2.53;;
18875;SDS011;9570;50.854;13.778;2023-07-02T08:18:55;2.63;;;2.23;;
18875;SDS011;9570;50.854;13.778;2023-07-02T08:21:21;2.73;;;2.30;;
18875;SDS011;9570;50.854;13.778;2023-07-02T08:23:46;2.97;;;2.33;;
18875;SDS011;9570;50.854;13.778;2023-07-02T08:26:11;2.50;;;2.30;;
18875;SDS011;9570;50.854;13.778;2023-07-02T08:28:38;2.43;;;2.10;;
18875;SDS011;9570;50.854;13.778;2023-07-02T08:31:04;2.70;;;2.13;;
18875;SDS011;9570;50.854;13.778;2023-07-02T08:33:29;4.87;;;2.20;;
18875;SDS011;9570;50.854;13.778;2023-07-02T08:35:55;2.80;;;2.10;;
18875;SDS011;9570;50.854;13.778;2023-07-02T08:38:22;3.03;;;2.00;;
18875;SDS011;9570;50.854;13.778;2023-07-02T08:40:48;2.23;;;2.03;;
18875;SDS011;9570;50.854;13.778;2023-07-02T08:43:14;3.23;;;2.63;;
18875;SDS011;9570;50.854;13.778;2023-07-02T08:45:42;2.30;;;2.07;;
18875;SDS011;9570;50.854;13.778;2023-07-02T08:48:08;3.07;;;1.87;;
18875;SDS011;9570;50.854;13.778;2023-07-02T08:50:35;2.03;;;1.80;;
18875;SDS011;9570;50.854;13.778;2023-07-02T08:53:01;2.87;;;2.00;;
18875;SDS011;9570;50.854;13.778;2023-07-02T08:55:27;2.57;;;2.33;;
18875;SDS011;9570;50.854;13.778;2023-07-02T08:57:55;2.13;;;1.93;;
18875;SDS011;9570;50.854;13.778;2023-07-02T09:00:25;2.73;;;1.83;;
18875;SDS011;9570;50.854;13.778;2023-07-02T09:02:56;2.65;;;1.92;;
18875;SDS011;9570;50.854;13.778;2023-07-02T09:05:21;3.15;;;1.75;;
18875;SDS011;9570;50.854;13.778;2023-07-02T09:07:47;3.72;;;1.35;;
18875;SDS011;9570;50.854;13.778;2023-07-02T09:10:29;2.13;;;1.73;;
18875;SDS011;9570;50.854;13.778;2023-07-02T09:13:05;3.08;;;1.80;;
18875;SDS011;9570;50.854;13.778;2023-07-02T09:15:35;3.33;;;1.90;;
18875;SDS011;9570;50.854;13.778;2023-07-02T09:18:02;2.13;;;1.70;;
18875;SDS011;9570;50.854;13.778;2023-07-02T09:20:33;1.77;;;1.65;;
18875;SDS011;9570;50.854;13.778;2023-07-02T09:22:59;1.50;;;1.40;;
18875;SDS011;9570;50.854;13.778;2023-07-02T09:25:36;2.15;;;1.55;;
18875;SDS011;9570;50.854;13.778;2023-07-02T09:28:13;2.05;;;1.60;;
18875;SDS011;9570;50.854;13.778;2023-07-02T09:30:48;3.92;;;1.70;;
18875;SDS011;9570;50.854;13.778;2023-07-02T09:33:18;3.67;;;1.60;;
18875;SDS011;9570;50.854;13.778;2023-07-02T09:35:44;2.10;;;1.50;;
18875;SDS011;9570;50.854;13.778;2023-07-02T09:38:10;1.98;;;1.58;;
18875;SDS011;9570;50.854;13.778;2023-07-02T09:40:37;1.60;;;1.50;;
18875;SDS011;9570;50.854;13.778;2023-07-02T09:43:11;1.70;;;1.60;;
18875;SDS011;9570;50.854;13.778;2023-07-02T09:45:36;2.05;;;1.60;;
18875;SDS011;9570;50.854;13.778;2023-07-02T09:48:03;1.40;;;1.30;;
18875;SDS011;9570;50.854;13.778;2023-07-02T09:50:30;2.28;;;1.52;;
18875;SDS011;9570;50.854;13.778;2023-07-02T09:52:57;1.50;;;1.40;;
18875;SDS011;9570;50.854;13.778;2023-07-02T09:55:23;1.88;;;1.70;;
18875;SDS011;9570;50.854;13.778;2023-07-02T09:57:49;1.40;;;1.30;;
18875;SDS011;9570;50.854;13.778;2023-07-02T10:00:14;2.13;;;1.50;;
18875;SDS011;9570;50.854;13.778;2023-07-02T10:02:41;2.67;;;1.55;;
18875;SDS011;9570;50.854;13.778;2023-07-02T10:05:06;1.77;;;1.42;;
18875;SDS011;9570;50.854;13.778;2023-07-02T10:07:32;3.33;;;1.50;;
18875;SDS011;9570;50.854;13.778;2023-07-02T10:09:58;1.88;;;1.58;;
18875;SDS011;9570;50.854;13.778;2023-07-02T10:12:24;2.38;;;1.77;;
18875;SDS011;9570;50.854;13.778;2023-07-02T10:14:52;4.15;;;1.40;;
18875;SDS011;9570;50.854;13.778;2023-07-02T10:17:28;1.67;;;1.38;;
18875;SDS011;9570;50.854;13.778;2023-07-02T10:19:59;1.30;;;1.20;;
18875;SDS011;9570;50.854;13.778;2023-07-02T10:22:26;1.35;;;1.23;;
18875;SDS011;9570;50.854;13.778;2023-07-02T10:27:36;5.38;;;1.45;;
18875;SDS011;9570;50.854;13.778;2023-07-02T10:30:06;3.53;;;1.42;;
18875;SDS011;9570;50.854;13.778;2023-07-02T10:32:34;1.58;;;1.30;;
18875;SDS011;9570;50.854;13.778;2023-07-02T10:35:01;1.95;;;1.50;;
18875;SDS011;9570;50.854;13.778;2023-07-02T10:37:35;5.15;;;1.40;;
18875;SDS011;9570;50.854;13.778;2023-07-02T10:40:03;2.05;;;1.42;;
18875;SDS011;9570;50.854;13.778;2023-07-02T10:42:32;1.20;;;1.10;;
18875;SDS011;9570;50.854;13.778;2023-07-02T10:44:59;1.58;;;1.40;;
18875;SDS011;9570;50.854;13.778;2023-07-02T10:47:24;2.42;;;1.40;;
18875;SDS011;9570;50.854;13.778;2023-07-02T10:49:50;2.55;;;1.30;;
18875;SDS011;9570;50.854;13.778;2023-07-02T10:52:15;2.53;;;1.30;;
18875;SDS011;9570;50.854;13.778;2023-07-02T10:54:45;1.33;;;1.23;;
18875;SDS011;9570;50.854;13.778;2023-07-02T10:57:14;1.90;;;1.30;;
18875;SDS011;9570;50.854;13.778;2023-07-02T10:59:45;3.47;;;1.42;;
18875;SDS011;9570;50.854;13.778;2023-07-02T11:02:10;1.77;;;1.40;;
18875;SDS011;9570;50.854;13.778;2023-07-02T11:04:36;3.30;;;1.67;;
18875;SDS011;9570;50.854;13.778;2023-07-02T11:07:02;2.77;;;1.43;;
18875;SDS011;9570;50.854;13.778;2023-07-02T11:09:28;2.37;;;1.43;;
18875;SDS011;9570;50.854;13.778;2023-07-02T11:11:55;2.23;;;1.50;;
18875;SDS011;9570;50.854;13.778;2023-07-02T11:14:29;3.83;;;1.50;;
18875;SDS011;9570;50.854;13.778;2023-07-02T11:16:59;2.70;;;1.50;;
18875;SDS011;9570;50.854;13.778;2023-07-02T11:19:28;1.43;;;1.33;;
18875;SDS011;9570;50.854;13.778;2023-07-02T11:21:54;2.17;;;1.90;;
18875;SDS011;9570;50.854;13.778;2023-07-02T11:24:32;2.20;;;1.40;;
18875;SDS011;9570;50.854;13.778;2023-07-02T11:27:00;1.40;;;1.30;;
18875;SDS011;9570;50.854;13.778;2023-07-02T11:29:28;1.50;;;1.37;;
18875;SDS011;9570;50.854;13.778;2023-07-02T11:31:54;1.20;;;1.10;;
18875;SDS011;9570;50.854;13.778;2023-07-02T11:34:21;3.40;;;1.57;;
18875;SDS011;9570;50.854;13.778;2023-07-02T11:36:47;2.57;;;1.50;;
18875;SDS011;9570;50.854;13.778;2023-07-02T11:39:13;2.03;;;1.50;;
18875;SDS011;9570;50.854;13.778;2023-07-02T11:41:40;2.53;;;1.60;;
18875;SDS011;9570;50.854;13.778;2023-07-02T11:44:07;2.83;;;1.40;;
18875;SDS011;9570;50.854;13.778;2023-07-02T11:46:33;3.10;;;1.53;;
18875;SDS011;9570;50.854;13.778;2023-07-02T11:49:02;2.00;;;1.70;;
18875;SDS011;9570;50.854;13.778;2023-07-02T11:51:33;1.83;;;1.50;;
18875;SDS011;9570;50.854;13.778;2023-07-02T11:54:00;3.43;;;1.70;;
18875;SDS011;9570;50.854;13.778;2023-07-02T11:56:25;2.40;;;1.60;;
18875;SDS011;9570;50.854;13.778;2023-07-02T11:58:51;1.50;;;1.40;;
18875;SDS011;9570;50.854;13.778;2023-07-02T12:01:16;2.23;;;1.60;;
18875;SDS011;9570;50.854;13.778;2023-07-02T12:03:43;1.87;;;1.40;;
18875;SDS011;9570;50.854;13.778;2023-07-02T12:06:09;1.60;;;1.50;;
18875;SDS011;9570;50.854;13.778;2023-07-02T12:08:35;1.80;;;1.57;;
18875;SDS011;9570;50.854;13.778;2023-07-02T12:11:00;2.03;;;1.80;;
18875;SDS011;9570;50.854;13.778;2023-07-02T12:13:25;1.77;;;1.67;;
18875;SDS011;9570;50.854;13.778;2023-07-02T12:15:51;2.30;;;1.70;;
18875;SDS011;9570;50.854;13.778;2023-07-02T12:18:16;2.97;;;1.83;;
18875;SDS011;9570;50.854;13.778;2023-07-02T12:20:42;3.43;;;1.77;;
18875;SDS011;9570;50.854;13.778;2023-07-02T12:23:08;1.73;;;1.60;;
18875;SDS011;9570;50.854;13.778;2023-07-02T12:25:34;3.13;;;1.60;;
18875;SDS011;9570;50.854;13.778;2023-07-02T12:27:59;1.97;;;1.80;;
18875;SDS011;9570;50.854;13.778;2023-07-02T12:30:26;3.37;;;1.80;;
18875;SDS011;9570;50.854;13.778;2023-07-02T12:32:52;4.33;;;1.80;;
18875;SDS011;9570;50.854;13.778;2023-07-02T12:35:17;2.13;;;1.63;;
18875;SDS011;9570;50.854;13.778;2023-07-02T12:37:47;2.37;;;1.77;;
18875;SDS011;9570;50.854;13.778;2023-07-02T12:40:16;2.17;;;1.67;;
18875;SDS011;9570;50.854;13.778;2023-07-02T12:42:43;3.37;;;1.83;;
18875;SDS011;9570;50.854;13.778;2023-07-02T12:45:10;2.47;;;1.90;;
18875;SDS011;9570;50.854;13.778;2023-07-02T12:47:36;2.30;;;1.97;;
18875;SDS011;9570;50.854;13.778;2023-07-02T12:50:02;2.03;;;1.83;;
18875;SDS011;9570;50.854;13.778;2023-07-02T12:52:29;2.10;;;1.90;;
18875;SDS011;9570;50.854;13.778;2023-07-02T12:54:54;4.40;;;2.07;;
18875;SDS011;9570;50.854;13.778;2023-07-02T12:57:20;2.70;;;2.10;;
18875;SDS011;9570;50.854;13.778;2023-07-02T12:59:45;4.73;;;1.90;;
18875;SDS011;9570;50.854;13.778;2023-07-02T13:02:11;2.77;;;2.33;;
18875;SDS011;9570;50.854;13.778;2023-07-02T13:04:36;3.83;;;2.00;;
18875;SDS011;9570;50.854;13.778;2023-07-02T13:07:03;3.70;;;2.00;;
18875;SDS011;9570;50.854;13.778;2023-07-02T13:09:28;2.13;;;1.93;;
18875;SDS011;9570;50.854;13.778;2023-07-02T13:11:54;2.03;;;1.80;;
18875;SDS011;9570;50.854;13.778;2023-07-02T13:14:19;4.30;;;1.90;;
18875;SDS011;9570;50.854;13.778;2023-07-02T13:16:45;2.43;;;1.70;;
18875;SDS011;9570;50.854;13.778;2023-07-02T13:19:10;3.10;;;1.70;;
18875;SDS011;9570;50.854;13.778;2023-07-02T13:21:36;2.73;;;1.80;;
18875;SDS011;9570;50.854;13.778;2023-07-02T13:24:02;5.03;;;1.77;;
18875;SDS011;9570;50.854;13.778;2023-07-02T13:26:27;2.90;;;2.10;;
18875;SDS011;9570;50.854;13.778;2023-07-02T13:28:53;3.50;;;1.90;;
18875;SDS011;9570;50.854;13.778;2023-07-02T13:31:18;2.37;;;2.00;;
18875;SDS011;9570;50.854;13.778;2023-07-02T13:33:44;2.80;;;1.90;;
18875;SDS011;9570;50.854;13.778;2023-07-02T13:36:11;4.43;;;2.00;;
18875;SDS011;9570;50.854;13.778;2023-07-02T13:38:37;3.27;;;2.00;;
18875;SDS011;9570;50.854;13.778;2023-07-02T13:41:02;2.90;;;2.20;;
18875;SDS011;9570;50.854;13.778;2023-07-02T13:43:28;3.77;;;1.80;;
18875;SDS011;9570;50.854;13.778;2023-07-02T13:45:53;2.60;;;1.77;;
18875;SDS011;9570;50.854;13.778;2023-07-02T13:48:19;2.00;;;1.80;;
18875;SDS011;9570;50.854;13.778;2023-07-02T13:50:44;2.30;;;2.10;;
18875;SDS011;9570;50.854;13.778;2023-07-02T13:53:10;1.87;;;1.77;;
18875;SDS011;9570;50.854;13.778;2023-07-02T13:55:35;4.10;;;1.80;;
18875;SDS011;9570;50.854;13.778;2023-07-02T13:58:01;3.13;;;2.00;;
18875;SDS011;9570;50.854;13.778;2023-07-02T14:00:26;2.57;;;2.00;;
18875;SDS011;9570;50.854;13.778;2023-07-02T14:02:52;2.30;;;1.97;;
18875;SDS011;9570;50.854;13.778;2023-07-02T14:05:18;2.80;;;1.80;;
18875;SDS011;9570;50.854;13.778;2023-07-02T14:07:44;4.80;;;2.00;;
18875;SDS011;9570;50.854;13.778;2023-07-02T14:10:10;3.27;;;1.93;;
18875;SDS011;9570;50.854;13.778;2023-07-02T14:12:37;2.83;;;2.00;;
18875;SDS011;9570;50.854;13.778;2023-07-02T14:15:03;3.00;;;2.00;;
18875;SDS011;9570;50.854;13.778;2023-07-02T14:17:28;2.67;;;1.80;;
18875;SDS011;9570;50.854;13.778;2023-07-02T14:19:54;2.03;;;1.83;;
18875;SDS011;9570;50.854;13.778;2023-07-02T14:22:19;6.43;;;2.20;;
18875;SDS011;9570;50.854;13.778;2023-07-02T14:24:45;2.00;;;1.80;;
18875;SDS011;9570;50.854;13.778;2023-07-02T14:27:10;3.57;;;1.77;;
18875;SDS011;9570;50.854;13.778;2023-07-02T14:29:36;3.70;;;2.20;;
18875;SDS011;9570;50.854;13.778;2023-07-02T14:32:01;3.67;;;2.10;;
18875;SDS011;9570;50.854;13.778;2023-07-02T14:34:27;4.57;;;2.17;;
18875;SDS011;9570;50.854;13.778;2023-07-02T14:36:53;4.20;;;2.13;;
18875;SDS011;9570;50.854;13.778;2023-07-02T14:39:18;2.30;;;2.10;;
18875;SDS011;9570;50.854;13.778;2023-07-02T14:41:43;3.13;;;2.20;;
18875;SDS011;9570;50.854;13.778;2023-07-02T14:44:09;3.50;;;2.37;;
18875;SDS011;9570;50.854;13.778;2023-07-02T14:46:34;2.33;;;2.10;;